Latest Weather Observations for Roxby Downs

IDS60801

Issued at 5:05 am CDT Friday 24 October 2014 (issued every 30 minutes, with the page automatically refreshed every 10 minutes)

About weather observations | Map of weather stations | Latest weather observations for SA | Other Formats
Station Details ID: 016096 Name: OLYMPIC DAM AERODROME Lat: -30.48 Lon: 136.88 Height: 98.5 m
Data from the previous 72 hours. | See also: Recent months at Roxby Downs
Date/Time
CDT
Temp
°C
App
Temp
°C
Dew
Point
Rel
Hum
%
Delta-T
°C
Wind Press
QNH
hPa
Press
MSL
hPa
Rain
since 9 am
mm
Dir
 
Spd
km/h
Gust
km/h
Spd
kts
Gust
kts
24/05:00am 22.9 21.5 3.4 28 9.5 SE 0 0 0 0 1013.8 1013.5 0.0
24/04:30am 23.7 22.4 4.1 28 9.7 E 0 0 0 0 1013.9 1013.6 0.0
24/04:00am 24.1 21.3 3.4 26 10.1 N 7 7 4 4 1014.0 1013.8 0.0
24/03:30am 24.2 21.1 3.5 26 10.1 NNE 9 9 5 5 1013.7 1013.4 0.0
24/03:00am 23.4 22.0 3.4 27 9.7 CALM 0 0 0 0 1013.5 1013.2 0.0
24/02:52am 23.5 22.1 3.4 27 9.8 CALM 0 0 0 0 1013.6 1013.3 0.0
24/02:30am 23.3 21.5 3.3 27 9.7 E 2 6 1 3 1013.7 1013.4 0.0
24/02:00am 24.1 21.6 4.0 27 9.9 ESE 6 9 3 5 1013.7 1013.4 0.0
24/01:30am 25.2 22.8 4.3 26 10.5 ESE 6 11 3 6 1014.0 1013.8 0.0
24/01:00am 25.7 22.8 4.8 26 10.6 SSE 9 11 5 6 1014.2 1014.0 0.0
24/12:30am 26.3 23.4 4.7 25 11.0 SE 9 13 5 7 1014.2 1014.0 0.0
24/12:00am 27.2 24.0 4.9 24 11.4 SE 11 13 6 7 1014.5 1014.3 0.0
 
Date/Time
CDT
Temp
°C
App
Temp
°C
Dew
Point
Rel
Hum
%
Delta-T
°C
Wind Press
QNH
hPa
Press
MSL
hPa
Rain
since 9 am
mm
Dir
 
Spd
km/h
Gust
km/h
Spd
kts
Gust
kts
23/11:30pm 26.1 23.3 5.1 26 10.7 SSE 9 9 5 5 1014.4 1014.2 0.0
23/11:00pm 26.7 23.8 4.5 24 11.3 SSE 9 11 5 6 1014.6 1014.4 0.0
23/10:30pm 28.1 25.3 5.0 23 11.9 SSE 9 11 5 6 1014.8 1014.6 0.0
23/10:00pm 29.1 25.9 5.2 22 12.5 SSE 11 13 6 7 1014.7 1014.5 0.0
23/09:30pm 30.1 27.0 5.4 21 13.0 S 11 13 6 7 1014.6 1014.4 0.0
23/09:00pm 31.2 27.4 5.6 20 13.6 S 15 20 8 11 1014.1 1013.9 0.0
23/08:30pm 31.9 27.6 5.4 19 14.1 S 17 22 9 12 1013.8 1013.5 0.0
23/08:11pm 32.6 27.7 5.2 18 14.6 S 20 28 11 15 1013.4 1013.1 0.0
23/08:00pm 32.8 27.4 4.6 17 14.9 SSW 22 32 12 17 1013.3 1013.0 0.0
23/07:39pm 33.8 30.1 4.5 16 15.5 W 13 20 7 11 1013.0 1012.7 0.0
23/07:30pm 34.1 31.0 3.8 15 15.9 WNW 9 11 5 6 1012.7 1012.4 0.0
23/07:27pm 34.3 31.1 3.0 14 16.2 WNW 9 13 5 7 1012.6 1012.3 0.0
23/07:00pm 35.3 30.7 3.8 14 16.6 WNW 17 22 9 12 1012.4 1012.1 0.0
23/06:50pm 35.5 31.3 3.9 14 16.7 WNW 15 24 8 13 1012.3 1012.0 0.0
23/06:30pm 36.0 31.7 3.3 13 17.2 W 15 20 8 11 1012.2 1011.9 0.0
23/06:00pm 36.2 30.0 2.3 12 17.6 W 24 33 13 18 1012.2 1011.9 0.0
23/05:30pm 37.2 31.5 3.1 12 18.0 W 22 30 12 16 1012.2 1011.9 0.0
23/05:00pm 36.9 32.0 4.0 13 17.6 WNW 19 28 10 15 1012.1 1011.8 0.0
23/04:30pm 36.5 31.9 3.7 13 17.4 WNW 17 26 9 14 1012.2 1011.9 0.0
23/04:00pm 37.3 33.6 4.3 13 17.7 W 13 24 7 13 1012.4 1012.1 0.0
23/03:30pm 36.6 33.0 4.8 14 17.2 WNW 13 22 7 12 1012.6 1012.3 0.0
23/03:00pm 35.5 32.8 5.8 16 16.2 NW 9 13 5 7 1013.0 1012.7 0.0
23/02:30pm 34.9 31.6 6.2 17 15.7 NNW 13 20 7 11 1013.5 1013.2 0.0
23/02:00pm 34.3 31.6 5.8 17 15.4 WSW 9 20 5 11 1013.9 1013.6 0.0
23/01:30pm 33.7 30.7 6.1 18 15.0 SSW 11 24 6 13 1014.4 1014.2 0.0
23/01:00pm 33.7 31.4 7.6 20 14.5 NNW 9 15 5 8 1014.7 1014.5 0.0
23/12:30pm 32.3 30.8 8.5 23 13.3 NNE 6 11 3 6 1015.2 1015.0 0.0
23/12:00pm 31.2 29.8 9.4 26 12.3 S 7 17 4 9 1015.2 1015.0 0.0
23/11:30am 30.0 28.6 11.0 31 10.9 SE 9 15 5 8 1015.7 1015.5 0.0
23/11:00am 28.2 26.8 10.9 34 9.9 ESE 9 15 5 8 1016.2 1015.9 0.0
23/10:30am 26.0 24.7 11.4 40 8.3 SE 9 15 5 8 1016.5 1016.2 0.0
23/10:00am 24.3 22.9 12.3 47 6.9 SE 11 15 6 8 1016.7 1016.4 0.0
23/09:30am 22.9 21.5 12.2 51 6.1 SSE 11 15 6 8 1016.9 1016.6 0.0
23/09:00am 21.3 20.0 12.4 57 5.0 S 11 17 6 9 1016.9 1016.6 0.0
23/08:36am 20.3 18.6 12.5 61 4.4 SSE 13 15 7 8 1016.7 1016.4 0.0
23/08:30am 19.8 18.5 12.6 63 4.1 SSE 11 15 6 8 1016.7 1016.4 0.0
23/08:17am 19.5 17.1 12.5 64 3.9 SSE 17 20 9 11 1016.6 1016.3 0.0
23/08:00am 18.7 16.3 12.5 67 3.5 SSE 17 20 9 11 1016.5 1016.2 0.0
23/07:30am 17.7 16.4 12.4 71 2.9 SSE 11 15 6 8 1016.6 1016.3 0.0
23/07:00am 17.1 16.0 11.8 71 2.9 S 9 13 5 7 1016.6 1016.3 0.0
23/06:59am 17.1 16.0 11.8 71 2.9 S 9 13 5 7 1016.6 1016.3 0.0
23/06:40am 17.2 16.0 11.7 70 3.0 S 9 13 5 7 1016.3 1016.0 0.0
23/06:33am 17.3 15.8 11.8 70 3.0 S 11 17 6 9 1016.2 1015.9 0.0
23/06:30am 17.3 15.3 11.6 69 3.1 S 13 17 7 9 1016.1 1015.8 0.0
23/06:17am 17.6 15.7 11.8 69 3.2 S 13 20 7 11 1016.0 1015.7 0.0
23/06:09am 17.6 15.6 11.6 68 3.3 S 13 15 7 8 1016.0 1015.7 0.0
23/06:00am 17.7 15.7 11.5 67 3.4 S 13 17 7 9 1016.0 1015.7 0.0
23/05:42am 18.1 15.8 11.7 66 3.5 S 15 19 8 10 1015.8 1015.6 0.0
23/05:30am 18.2 15.8 11.5 65 3.7 S 15 19 8 10 1015.7 1015.5 0.0
23/05:00am 18.8 16.4 11.4 62 4.1 S 15 20 8 11 1015.7 1015.5 0.0
23/04:30am 19.0 16.8 10.8 59 4.5 S 13 15 7 8 1015.7 1015.5 0.0
23/04:00am 19.8 17.4 11.3 58 4.7 S 15 17 8 9 1015.7 1015.5 0.0
23/03:41am 20.0 18.7 11.2 57 4.8 S 9 13 5 7 1016.0 1015.7 0.0
23/03:31am 20.1 18.0 11.1 56 5.0 S 13 17 7 9 1016.0 1015.7 0.0
23/03:30am 20.1 18.0 11.1 56 4.9 S 13 17 7 9 1016.0 1015.7 0.0
23/03:00am 20.6 19.2 11.0 54 5.3 SSE 9 15 5 8 1016.3 1016.0 0.0
23/02:30am 21.7 19.6 11.1 51 5.9 ESE 13 19 7 10 1016.5 1016.2 0.0
23/02:00am 22.3 19.9 10.1 46 6.7 SE 13 20 7 11 1016.5 1016.2 0.0
23/01:30am 23.2 19.4 8.9 40 7.7 SSE 19 26 10 14 1016.4 1016.1 0.0
23/01:00am 23.9 19.2 7.9 36 8.5 SSE 22 30 12 16 1016.4 1016.1 0.0
23/12:30am 24.1 21.2 8.1 36 8.5 S 13 19 7 10 1016.8 1016.5 0.0
23/12:00am 25.4 21.7 8.0 33 9.3 SSE 17 24 9 13 1016.8 1016.5 0.0
 
Date/Time
CDT
Temp
°C
App
Temp
°C
Dew
Point
Rel
Hum
%
Delta-T
°C
Wind Press
QNH
hPa
Press
MSL
hPa
Rain
since 9 am
mm
Dir
 
Spd
km/h
Gust
km/h
Spd
kts
Gust
kts
22/11:30pm 26.0 21.9 8.5 33 9.5 S 20 26 11 14 1016.8 1016.5 0.0
22/11:00pm 27.0 22.6 8.9 32 9.9 SSE 22 33 12 18 1016.7 1016.4 0.0
22/10:51pm 27.8 23.1 7.6 28 10.9 S 22 32 12 17 1016.7 1016.4 0.0
22/10:30pm 28.3 23.9 4.6 22 12.2 SSW 17 20 9 11 1016.3 1016.0 0.0
22/10:00pm 28.8 25.1 4.3 21 12.6 SSW 13 19 7 10 1016.3 1016.0 0.0
22/09:30pm 29.7 25.2 4.4 20 13.0 SSW 17 20 9 11 1016.2 1015.9 0.0
22/09:00pm 30.6 25.8 4.4 19 13.6 SW 19 24 10 13 1016.0 1015.7 0.0
22/08:30pm 31.5 26.3 3.5 17 14.4 SW 20 26 11 14 1015.6 1015.4 0.0
22/08:00pm 32.3 27.3 1.4 14 15.4 SW 17 26 9 14 1015.3 1015.1 0.0
22/07:52pm 32.5 27.2 1.6 14 15.5 SW 19 24 10 13 1015.2 1015.0 0.0
22/07:30pm 33.4 27.4 1.3 13 16.1 SW 22 28 12 15 1015.0 1014.8 0.0
22/07:00pm 34.7 29.1 1.1 12 16.9 SW 20 28 11 15 1014.6 1014.4 0.0
22/06:30pm 35.7 30.2 1.9 12 17.3 SW 20 30 11 16 1014.4 1014.2 0.0
22/06:00pm 36.7 32.1 1.5 11 18.1 WSW 15 22 8 12 1014.2 1014.0 0.0
22/05:30pm 36.5 32.2 1.3 11 18.0 S 13 19 7 10 1014.3 1014.1 0.0
22/05:00pm 37.0 32.2 0.4 10 18.5 S 15 26 8 14 1014.3 1014.1 0.0
22/04:30pm 37.3 31.8 0.6 10 18.6 SSW 19 28 10 15 1014.3 1014.1 0.0
22/04:00pm 37.0 30.1 0.4 10 18.5 WSW 26 33 14 18 1014.5 1014.3 0.0
22/03:30pm 36.8 32.2 1.5 11 18.1 W 15 26 8 14 1014.8 1014.6 0.0
22/03:00pm 36.7 31.7 1.5 11 18.1 WSW 17 26 9 14 1015.0 1014.8 0.0
22/02:30pm 36.4 31.6 2.4 12 17.7 W 17 24 9 13 1015.5 1015.3 0.0
22/02:00pm 36.2 32.9 2.3 12 17.6 NW 9 17 5 9 1015.8 1015.6 0.0
22/01:30pm 35.9 32.0 3.2 13 17.1 NW 13 24 7 13 1016.3 1016.0 0.0
22/01:00pm 34.8 30.9 3.4 14 16.4 W 13 22 7 12 1016.6 1016.3 0.0
22/12:30pm 34.2 30.6 4.8 16 15.7 S 13 20 7 11 1016.9 1016.6 0.0
22/12:00pm 33.0 29.7 4.7 17 14.9 SSW 11 17 6 9 1017.2 1016.9 0.0
22/11:30am 31.5 29.1 5.1 19 13.9 S 7 13 4 7 1017.4 1017.1 0.0
22/11:00am 30.1 27.4 5.4 21 13.0 SSW 9 13 5 7 1017.7 1017.4 0.0
22/10:30am 29.0 26.2 5.1 22 12.4 S 9 13 5 7 1017.8 1017.5 0.0
22/10:00am 27.5 23.9 5.1 24 11.5 SSW 13 19 7 10 1018.0 1017.7 0.0
22/09:30am 26.6 22.7 5.5 26 10.9 SSW 15 20 8 11 1017.9 1017.6 0.0
22/09:00am 24.9 20.2 5.2 28 10.0 SSW 19 22 10 12 1017.6 1017.3 0.0
22/08:30am 24.0 19.2 5.4 30 9.4 SSW 20 24 11 13 1017.5 1017.2 0.0
22/08:00am 22.9 18.1 4.9 31 9.0 SSW 19 26 10 14 1017.4 1017.1 0.0
22/07:30am 22.3 18.6 4.4 31 8.8 SSW 13 19 7 10 1017.1 1016.8 0.0
22/07:17am 21.7 18.0 4.3 32 8.5 SSW 13 17 7 9 1017.0 1016.7 0.0
22/07:00am 21.8 18.4 3.9 31 8.7 SSW 11 15 6 8 1016.8 1016.5 0.0
22/06:30am 22.3 18.1 3.9 30 9.0 SW 15 20 8 11 1016.6 1016.3 0.0
22/06:00am 22.9 18.5 2.9 27 9.6 SW 15 20 8 11 1016.2 1015.9 0.0
22/05:30am 23.6 20.3 2.4 25 10.1 SW 9 13 5 7 1016.0 1015.7 0.0
22/05:00am 24.4 19.9 1.9 23 10.7 WSW 15 20 8 11 1015.6 1015.4 0.0
22/04:30am 24.9 21.0 1.1 21 11.2 WSW 11 17 6 9 1015.5 1015.3 0.0
22/04:00am 26.1 21.3 0.0 18 12.2 W 15 20 8 11 1015.2 1015.0 0.0
22/03:30am 26.6 22.1 -0.4 17 12.5 W 13 17 7 9 1014.9 1014.7 0.0
22/03:00am 25.8 22.1 -0.3 18 12.1 N 9 9 5 5 1014.7 1014.5 0.0
22/02:52am 25.8 22.1 -0.3 18 12.1 N 9 11 5 6 1014.7 1014.5 0.0
22/02:30am 25.9 22.2 -0.2 18 12.1 N 9 11 5 6 1014.9 1014.7 0.0
22/02:26am 25.7 21.9 -0.4 18 12.0 N 9 11 5 6 1015.0 1014.8 0.0
22/02:00am 24.6 21.3 -1.3 18 11.6 N 6 9 3 5 1015.3 1015.1 0.0
22/01:57am 25.1 21.8 -0.9 18 11.8 N 6 7 3 4 1015.4 1015.2 0.0
22/01:30am 27.3 23.5 -0.7 16 13.0 N 9 9 5 5 1015.5 1015.3 0.0
22/01:00am 28.8 25.0 -0.4 15 13.8 N 9 11 5 6 1015.8 1015.6 0.0
22/12:30am 29.2 25.5 -0.1 15 13.9 N 9 11 5 6 1016.3 1016.0 0.0
22/12:23am 29.0 25.3 -0.2 15 13.9 N 9 11 5 6 1016.3 1016.0 0.0
22/12:03am 28.5 25.1 -0.6 15 13.7 N 7 9 4 5 1016.5 1016.2 0.0
22/12:00am 28.5 25.1 -0.6 15 13.6 NNE 7 9 4 5 1016.5 1016.2 0.0
 
Date/Time
CDT
Temp
°C
App
Temp
°C
Dew
Point
Rel
Hum
%
Delta-T
°C
Wind Press
QNH
hPa
Press
MSL
hPa
Rain
since 9 am
mm
Dir
 
Spd
km/h
Gust
km/h
Spd
kts
Gust
kts
21/11:41pm 29.4 25.6 -0.9 14 14.2 NNE 9 11 5 6 1016.5 1016.2 0.0
21/11:30pm 29.5 25.7 -0.8 14 14.3 N 9 11 5 6 1016.7 1016.4 0.0
21/11:00pm 30.9 27.5 -0.7 13 15.1 NNE 7 11 4 6 1016.8 1016.5 0.0
21/10:46pm 30.8 28.3 -0.8 13 15.0 ENE 2 11 1 6 1017.0 1016.7 0.0
21/10:30pm 30.7 27.5 -0.8 13 14.9 SSW 6 7 3 4 1017.0 1016.7 0.0
21/10:00pm 31.9 28.1 -1.0 12 15.7 NNE 9 11 5 6 1016.9 1016.6 0.0
21/09:30pm 33.2 28.2 -1.2 11 16.5 NNE 15 20 8 11 1016.3 1016.0 0.0
21/09:00pm 33.5 28.5 -1.0 11 16.6 NNE 15 22 8 12 1016.0 1015.7 0.0
21/08:30pm 34.1 28.8 -0.5 11 16.9 NNE 17 20 9 11 1015.7 1015.5 0.0
21/08:00pm 34.8 29.4 -1.3 10 17.5 NNE 17 20 9 11 1015.4 1015.2 0.0
21/07:30pm 35.5 29.8 -0.8 10 17.8 NNE 19 26 10 14 1015.1 1014.9 0.0
21/07:00pm 36.3 30.7 -0.2 10 18.2 NNE 19 26 10 14 1014.8 1014.6 0.0
21/06:30pm 36.7 31.5 0.1 10 18.4 NNE 17 22 9 12 1014.6 1014.4 0.0
21/06:00pm 37.2 32.2 -0.9 9 18.9 N 15 22 8 12 1014.4 1014.2 0.0
21/05:30pm 37.8 30.8 -0.5 9 19.2 NNE 26 39 14 21 1014.3 1014.1 0.0
21/05:00pm 38.1 32.3 -0.3 9 19.3 N 20 33 11 18 1014.5 1014.3 0.0
21/04:45pm 38.7 33.5 0.2 9 19.6 N 17 26 9 14 1014.6 1014.4 0.0
21/04:30pm 38.3 32.9 -1.7 8 19.7 N 17 30 9 16 1014.8 1014.6 0.0
21/04:26pm 38.0 32.5 -1.9 8 19.6 N 17 30 9 16 1014.9 1014.7 0.0
21/04:20pm 37.7 32.4 -0.6 9 19.1 N 17 28 9 15 1014.8 1014.6 0.0
21/04:00pm 38.0 32.0 -1.9 8 19.6 NNW 20 33 11 18 1015.1 1014.9 0.0
21/03:30pm 37.6 31.9 -0.6 9 19.1 N 19 35 10 19 1015.4 1015.2 0.0
21/03:00pm 38.3 31.0 -0.1 9 19.4 N 28 41 15 22 1015.8 1015.6 0.0
21/02:30pm 38.4 31.9 0.0 9 19.4 N 24 37 13 20 1016.3 1016.0 0.0
21/02:00pm 37.6 29.8 -0.6 9 19.1 N 30 43 16 23 1016.9 1016.6 0.0
21/01:30pm 37.7 30.3 -0.6 9 19.1 N 28 43 15 23 1017.4 1017.1 0.0
21/01:00pm 36.6 29.1 -1.4 9 18.6 N 28 44 15 24 1017.8 1017.5 0.0
21/12:49pm 37.1 29.7 -1.0 9 18.8 N 28 46 15 25 1017.9 1017.6 0.0
21/12:30pm 36.8 28.6 -1.2 9 18.7 N 32 46 17 25 1018.3 1018.0 0.0
21/12:06pm 36.6 28.3 -1.4 9 18.6 N 32 52 17 28 1018.6 1018.3 0.0
21/12:00pm 36.3 28.0 -1.6 9 18.4 N 32 44 17 24 1018.6 1018.3 0.0
21/11:47am 36.2 27.9 -1.7 9 18.4 N 32 44 17 24 1018.7 1018.4 0.0
21/11:37am 35.8 28.0 -0.5 10 17.9 N 30 48 16 26 1018.8 1018.5 0.0
21/11:30am 36.1 27.8 -1.7 9 18.3 N 32 44 17 24 1018.9 1018.6 0.0
21/11:00am 35.4 27.6 -0.8 10 17.8 N 30 41 16 22 1018.9 1018.6 0.0
21/10:30am 34.8 27.9 -2.7 9 17.7 NNE 24 32 13 17 1018.8 1018.5 0.0
21/10:00am 33.4 26.9 -2.3 10 16.9 NNE 22 35 12 19 1018.7 1018.4 0.0
21/09:30am 31.2 25.1 -4.0 10 15.9 NNE 19 24 10 13 1018.9 1018.6 0.0
21/09:00am 28.6 22.5 -3.6 12 14.3 NNE 19 26 10 14 1018.8 1018.5 0.0
21/08:30am 27.5 21.9 -3.3 13 13.6 NNE 17 24 9 13 1018.7 1018.4 0.0
21/08:00am 25.4 20.6 -2.2 16 12.3 NE 13 19 7 10 1018.5 1018.2 0.0
21/07:30am 24.0 19.2 -2.5 17 11.6 NE 13 15 7 8 1018.3 1018.0 0.0
21/07:00am 23.9 19.1 -2.6 17 11.6 NNE 13 15 7 8 1017.9 1017.6 0.0
21/06:30am 23.5 19.5 -2.2 18 11.2 NNE 9 13 5 7 1017.4 1017.1 0.0
21/06:00am 23.7 19.4 -2.0 18 11.3 NNE 11 13 6 7 1017.0 1016.7 0.0
21/05:30am 23.5 19.1 -2.2 18 11.2 NNE 11 13 6 7 1016.6 1016.3 0.0

Other Formats:

Comma delimited format used in spreadsheet applications
http://www.bom.gov.au/fwo/IDS60801/IDS60801.95658.axf

JavaScript Object Notation format (JSON) in row-major order
http://www.bom.gov.au/fwo/IDS60801/IDS60801.95658.json